createdAt,value
2022-11-07T09:40:21.373Z,1.70
2022-11-07T09:41:22.184Z,1.50
2022-11-07T09:42:23.042Z,1.60
2022-11-07T09:43:23.891Z,1.40
2022-11-07T09:44:30.517Z,1.40
2022-11-07T09:45:26.513Z,1.60
2022-11-07T09:46:26.380Z,1.60
2022-11-07T09:47:27.236Z,1.50
2022-11-07T09:48:28.104Z,1.60
2022-11-07T09:49:28.971Z,1.40
2022-11-07T09:50:30.052Z,1.50
2022-11-07T09:51:30.404Z,1.50
2022-11-07T09:52:31.266Z,1.60
2022-11-07T09:53:32.119Z,1.40
2022-11-07T09:54:32.974Z,1.30
2022-11-07T09:55:33.997Z,1.80
2022-11-07T09:56:34.768Z,1.30
2022-11-07T09:57:35.625Z,1.50
2022-11-07T09:58:36.493Z,1.40
2022-11-07T09:59:37.343Z,1.30
2022-11-07T10:00:38.575Z,1.40
2022-11-07T10:01:39.053Z,1.40
2022-11-07T10:02:39.417Z,1.40
2022-11-07T10:03:49.131Z,1.50
2022-11-07T10:04:42.028Z,1.40
2022-11-07T10:05:42.088Z,1.40
2022-11-07T10:06:42.438Z,1.30
2022-11-07T10:07:43.324Z,1.30
2022-11-07T10:08:44.184Z,1.70
2022-11-07T10:09:45.048Z,1.20
2022-11-07T10:10:46.184Z,1.40
2022-11-07T10:11:46.476Z,1.30
2022-11-07T10:12:47.332Z,1.30
2022-11-07T10:13:48.197Z,1.30
2022-11-07T10:14:49.050Z,1.30
2022-11-07T10:15:50.066Z,1.40
2022-11-07T10:16:50.415Z,1.30
2022-11-07T10:17:52.207Z,1.40
2022-11-07T10:18:52.259Z,1.40
2022-11-07T10:19:53.129Z,1.40
2022-11-07T10:21:10.298Z,1.30
2022-11-07T10:21:55.805Z,1.40
2022-11-07T10:22:55.674Z,1.40
2022-11-07T10:23:56.533Z,1.40
2022-11-07T10:24:57.386Z,1.40
2022-11-07T10:25:58.677Z,1.30
2022-11-07T10:26:58.979Z,1.70
2022-11-07T10:27:59.835Z,1.40
2022-11-07T10:29:00.704Z,1.50
2022-11-07T10:30:01.581Z,1.50
2022-11-07T10:31:02.550Z,1.40
2022-11-07T10:32:02.917Z,1.40
2022-11-07T10:33:03.774Z,1.40
2022-11-07T10:34:04.637Z,1.40
2022-11-07T10:35:05.488Z,1.70
2022-11-07T10:36:06.551Z,1.80
2022-11-07T10:37:06.903Z,1.50
2022-11-07T10:38:07.764Z,1.70
2022-11-07T10:39:08.615Z,1.50
2022-11-07T10:40:11.927Z,1.50
2022-11-07T10:41:10.702Z,1.70
2022-11-07T10:42:10.998Z,1.60
2022-11-07T10:43:11.853Z,1.60
2022-11-07T10:44:12.724Z,1.70
2022-11-07T10:45:13.567Z,1.60
2022-11-07T10:46:14.556Z,1.50
2022-11-07T10:47:15.440Z,1.80
2022-11-07T10:48:16.672Z,1.70
2022-11-07T10:49:17.139Z,1.50
2022-11-07T10:50:18.078Z,1.40
2022-11-07T10:51:19.050Z,1.70
2022-11-07T10:52:19.409Z,1.70
2022-11-07T10:53:20.269Z,1.70
2022-11-07T10:54:21.942Z,2.00
2022-11-07T10:55:21.879Z,1.70
2022-11-07T10:56:23.236Z,1.80
2022-11-07T10:57:23.513Z,2.00
2022-11-07T10:58:24.366Z,2.10
2022-11-07T10:59:25.227Z,2.10
2022-11-07T11:00:26.075Z,1.90
2022-11-07T11:01:27.198Z,1.90
2022-11-07T11:02:27.573Z,1.90
2022-11-07T11:03:41.814Z,2.00
2022-11-07T11:04:30.186Z,2.00
2022-11-07T11:05:30.048Z,2.30
2022-11-07T11:06:31.051Z,2.40
2022-11-07T11:07:31.404Z,2.00
2022-11-07T11:08:32.302Z,2.30
2022-11-07T11:09:33.144Z,2.50
2022-11-07T11:10:34.000Z,2.30
2022-11-07T11:11:35.096Z,2.20
2022-11-07T11:12:35.396Z,2.90
2022-11-07T11:13:36.253Z,2.40
2022-11-07T11:14:37.150Z,2.40
2022-11-07T11:15:38.036Z,2.20
2022-11-07T11:16:39.125Z,2.30
2022-11-07T11:17:39.458Z,2.70
2022-11-07T11:18:40.317Z,2.10
2022-11-07T11:19:41.190Z,2.40
2022-11-07T11:20:42.054Z,2.20
2022-11-07T11:21:43.080Z,2.30
2022-11-07T11:22:43.452Z,2.40
2022-11-07T11:23:44.318Z,2.20
2022-11-07T11:24:45.152Z,2.30
2022-11-07T11:25:46.036Z,2.20
2022-11-07T11:26:47.105Z,2.30
2022-11-07T11:27:47.430Z,2.40
2022-11-07T11:28:48.286Z,2.50
2022-11-07T11:29:49.163Z,2.30
2022-11-07T11:30:50.021Z,2.20
2022-11-07T11:31:51.063Z,2.50
2022-11-07T11:32:51.430Z,2.40
2022-11-07T11:33:52.320Z,2.50
2022-11-07T11:34:53.194Z,2.40
2022-11-07T11:35:54.055Z,2.30
2022-11-07T11:36:55.052Z,2.20
2022-11-07T11:37:55.405Z,2.20
2022-11-07T11:38:56.255Z,2.20
2022-11-07T11:39:57.109Z,2.30
2022-11-07T11:41:04.669Z,2.90
2022-11-07T11:42:00.221Z,2.60
2022-11-07T11:42:59.504Z,2.10
2022-11-07T11:44:00.372Z,2.30
2022-11-07T11:45:01.233Z,2.60
2022-11-07T11:46:02.083Z,2.20
2022-11-07T11:47:03.052Z,2.20
2022-11-07T11:48:03.913Z,2.10
2022-11-07T11:49:04.767Z,1.90
2022-11-07T11:50:05.622Z,2.20
2022-11-07T11:51:06.482Z,1.90
2022-11-07T11:52:07.373Z,2.10
2022-11-07T11:53:08.201Z,2.20
2022-11-07T11:54:09.068Z,2.40
2022-11-07T11:55:09.927Z,2.20
2022-11-07T11:56:10.796Z,2.10
2022-11-07T11:57:12.091Z,1.90
2022-11-07T11:58:12.363Z,2.20
2022-11-07T11:59:13.218Z,2.00
2022-11-07T12:00:14.186Z,1.70
2022-11-07T12:01:15.033Z,1.70
2022-11-07T12:02:15.947Z,1.90
2022-11-07T12:03:17.122Z,1.90
2022-11-07T12:04:17.613Z,2.40
2022-11-07T12:05:18.473Z,1.80
2022-11-07T12:06:19.326Z,2.00
2022-11-07T12:07:20.550Z,1.90
2022-11-07T12:08:20.903Z,2.10
2022-11-07T12:09:21.762Z,1.90
2022-11-07T12:10:22.620Z,1.90
2022-11-07T12:11:23.472Z,1.70
2022-11-07T12:12:24.598Z,2.00
2022-11-07T12:13:24.860Z,1.90
2022-11-07T12:14:25.716Z,1.80
2022-11-07T12:15:26.590Z,2.00
2022-11-07T12:16:27.451Z,1.80
2022-11-07T12:17:28.568Z,1.70
2022-11-07T12:18:28.927Z,1.90
2022-11-07T12:19:29.783Z,1.90
2022-11-07T12:20:30.639Z,2.00
2022-11-07T12:21:31.522Z,2.20
2022-11-07T12:22:32.556Z,2.40
2022-11-07T12:23:32.915Z,1.80
2022-11-07T12:24:33.783Z,2.00
2022-11-07T12:25:34.650Z,2.40
2022-11-07T12:26:35.525Z,1.80
2022-11-07T12:27:36.681Z,1.80
2022-11-07T12:28:36.968Z,2.30
2022-11-07T12:29:37.823Z,1.80
2022-11-07T12:30:38.696Z,1.60
2022-11-07T12:31:39.567Z,1.80
2022-11-07T12:32:40.549Z,1.70
2022-11-07T12:33:41.402Z,1.70
2022-11-07T12:34:42.266Z,1.80
2022-11-07T12:35:43.117Z,1.70
2022-11-07T12:36:43.977Z,1.90
2022-11-07T12:37:45.095Z,1.90
2022-11-07T12:38:45.460Z,1.60
2022-11-07T12:39:46.369Z,1.70
2022-11-07T12:40:47.229Z,1.80
2022-11-07T12:41:48.084Z,1.70
2022-11-07T12:42:49.104Z,1.90
2022-11-07T12:43:49.930Z,1.80
2022-11-07T12:44:50.768Z,2.00
2022-11-07T12:45:51.615Z,1.80
2022-11-07T12:46:52.495Z,1.70
2022-11-07T12:47:53.555Z,1.90
2022-11-07T12:48:53.917Z,1.80
2022-11-07T12:49:54.775Z,2.00
2022-11-07T12:50:55.637Z,1.90
2022-11-07T12:51:56.488Z,2.10
2022-11-07T12:52:57.563Z,2.00
2022-11-07T12:53:57.908Z,1.60
2022-11-07T12:54:58.874Z,1.90
2022-11-07T12:55:59.736Z,1.70
2022-11-07T12:57:00.589Z,1.70
2022-11-07T12:58:01.696Z,2.50
2022-11-07T12:59:01.980Z,1.90
2022-11-07T13:00:02.832Z,1.80
2022-11-07T13:01:03.763Z,2.10
2022-11-07T13:02:04.714Z,2.00
2022-11-07T13:03:06.052Z,1.60
2022-11-07T13:04:06.403Z,1.40
2022-11-07T13:05:07.255Z,1.60
2022-11-07T13:06:08.116Z,1.70
2022-11-07T13:07:08.992Z,1.70
2022-11-07T13:08:09.852Z,1.50
2022-11-07T13:09:10.706Z,1.50
2022-11-07T13:10:11.557Z,1.80
2022-11-07T13:11:12.417Z,1.70
2022-11-07T13:12:13.275Z,1.60
2022-11-07T13:13:14.477Z,1.70
2022-11-07T13:14:18.424Z,1.40
2022-11-07T13:15:16.722Z,1.80
2022-11-07T13:16:16.584Z,1.50
2022-11-07T13:17:17.453Z,1.70
2022-11-07T13:18:18.548Z,1.90
2022-11-07T13:19:19.008Z,1.60
2022-11-07T13:20:19.859Z,1.50
2022-11-07T13:21:20.717Z,1.40
2022-11-07T13:22:21.572Z,1.50
2022-11-07T13:23:22.551Z,1.50
2022-11-07T13:24:23.402Z,1.50
2022-11-07T13:25:24.398Z,1.60
2022-11-07T13:26:45.884Z,1.60
2022-11-07T13:27:26.518Z,1.50
2022-11-07T13:28:26.592Z,1.50
2022-11-07T13:29:26.860Z,1.60
2022-11-07T13:30:27.727Z,1.60
2022-11-07T13:31:28.573Z,1.30
2022-11-07T13:32:29.431Z,1.70
2022-11-07T13:33:30.557Z,1.50
2022-11-07T13:34:30.919Z,1.30
2022-11-07T13:35:31.773Z,1.50
2022-11-07T13:36:32.676Z,1.70
2022-11-07T13:37:33.530Z,1.40
2022-11-07T13:38:34.555Z,1.50
2022-11-07T13:39:34.934Z,1.40
2022-11-07T13:40:35.780Z,1.50
2022-11-07T13:41:36.635Z,1.50
2022-11-07T13:42:37.491Z,1.30
2022-11-07T13:43:38.655Z,1.60
2022-11-07T13:44:38.926Z,1.60
2022-11-07T13:45:39.777Z,1.50
2022-11-07T13:46:40.629Z,1.60
2022-11-07T13:47:41.502Z,1.60
2022-11-07T13:48:42.362Z,1.50
2022-11-07T13:49:44.847Z,1.40
2022-11-07T13:50:43.856Z,1.50
2022-11-07T13:51:44.715Z,1.80
2022-11-07T13:52:45.567Z,1.50
2022-11-07T13:53:46.552Z,1.80
2022-11-07T13:54:47.448Z,1.60
2022-11-07T13:55:48.301Z,1.60
2022-11-07T13:56:49.161Z,1.60
2022-11-07T13:57:50.040Z,1.80
2022-11-07T13:58:51.116Z,1.60
2022-11-07T13:59:51.918Z,1.40
2022-11-07T14:00:52.888Z,1.70
2022-11-07T14:01:53.842Z,1.80
2022-11-07T14:02:54.877Z,1.40
2022-11-07T14:03:55.548Z,1.50
2022-11-07T14:05:15.213Z,1.60
2022-11-07T14:05:57.653Z,1.60
2022-11-07T14:06:57.527Z,1.60
2022-11-07T14:07:58.375Z,1.50
2022-11-07T14:08:59.553Z,1.60
2022-11-07T14:09:59.904Z,1.70
2022-11-07T14:11:00.762Z,1.60
2022-11-07T14:12:01.626Z,1.50
2022-11-07T14:13:02.494Z,1.50
2022-11-07T14:14:03.599Z,1.70
2022-11-07T14:15:03.872Z,1.50
2022-11-07T14:16:04.766Z,1.40
2022-11-07T14:17:05.667Z,1.40
2022-11-07T14:18:06.527Z,1.40
2022-11-07T14:19:07.391Z,1.50
2022-11-07T14:20:08.243Z,1.40
2022-11-07T14:21:09.098Z,1.50
2022-11-07T14:22:14.646Z,1.20
2022-11-07T14:23:10.653Z,1.50
2022-11-07T14:24:11.513Z,1.40
2022-11-07T14:25:12.365Z,1.50
2022-11-07T14:26:13.217Z,1.60
2022-11-07T14:27:14.081Z,1.30
2022-11-07T14:28:15.354Z,1.40
2022-11-07T14:29:16.092Z,1.50
2022-11-07T14:30:16.861Z,1.80
2022-11-07T14:31:17.724Z,1.30
2022-11-07T14:32:18.579Z,1.40
2022-11-07T14:33:19.299Z,1.30
2022-11-07T14:34:20.548Z,1.50
2022-11-07T14:35:20.910Z,1.20
2022-11-07T14:36:21.759Z,1.30
2022-11-07T14:37:22.630Z,1.40
2022-11-07T14:38:23.486Z,1.30
2022-11-07T14:39:24.550Z,1.40
2022-11-07T14:40:24.923Z,1.30
2022-11-07T14:41:25.805Z,1.30
2022-11-07T14:42:26.642Z,1.10
2022-11-07T14:43:27.517Z,1.50
2022-11-07T14:44:47.680Z,1.40
2022-11-07T14:46:05.599Z,1.30
2022-11-07T14:46:30.690Z,1.40
2022-11-07T14:47:30.561Z,1.50
2022-11-07T14:48:31.422Z,1.50
2022-11-07T14:49:32.550Z,1.70
2022-11-07T14:50:32.907Z,1.40
2022-11-07T14:51:33.764Z,1.40
2022-11-07T14:52:34.618Z,1.30
2022-11-07T14:53:35.473Z,1.40
2022-11-07T14:54:36.551Z,1.20
2022-11-07T14:55:36.905Z,1.50
2022-11-07T14:56:37.781Z,1.60
2022-11-07T14:57:38.616Z,1.30
2022-11-07T14:58:39.469Z,1.40
2022-11-07T14:59:40.717Z,1.20
2022-11-07T15:00:41.010Z,1.40
2022-11-07T15:01:41.995Z,1.40
2022-11-07T15:02:42.488Z,1.40
2022-11-07T15:03:43.329Z,1.40
2022-11-07T15:04:44.190Z,1.50
2022-11-07T15:05:45.047Z,1.40
2022-11-07T15:06:45.908Z,1.40
2022-11-07T15:07:46.764Z,1.30
2022-11-07T15:08:47.616Z,1.40
2022-11-07T15:09:48.549Z,1.50
2022-11-07T15:10:49.412Z,1.30
2022-11-07T15:11:50.283Z,1.20
2022-11-07T15:12:51.129Z,1.20
2022-11-07T15:13:51.986Z,1.60
2022-11-07T15:14:53.020Z,1.20
2022-11-07T15:15:53.794Z,1.40
2022-11-07T15:16:54.682Z,1.30
2022-11-07T15:17:55.550Z,1.60
2022-11-07T15:18:56.399Z,1.30
2022-11-07T15:19:57.260Z,1.20
2022-11-07T15:20:58.113Z,1.60
2022-11-07T15:21:58.971Z,1.50
2022-11-07T15:22:59.822Z,1.40
2022-11-07T15:24:00.673Z,1.40
2022-11-07T15:25:01.535Z,1.40
2022-11-07T15:26:02.386Z,1.50
2022-11-07T15:27:03.254Z,1.20
2022-11-07T15:28:04.105Z,1.30
2022-11-07T15:29:04.989Z,1.70
2022-11-07T15:30:05.983Z,1.80
2022-11-07T15:31:09.073Z,1.40
2022-11-07T15:32:08.494Z,1.40
2022-11-07T15:33:08.345Z,1.50
2022-11-07T15:34:09.197Z,1.10
2022-11-07T15:35:42.010Z,1.30
2022-11-07T15:36:11.808Z,1.20
2022-11-07T15:37:11.655Z,1.40
2022-11-07T15:38:12.509Z,1.30
2022-11-07T15:39:13.360Z,1.30
2022-11-07T15:40:14.222Z,1.40
2022-11-07T15:41:15.076Z,1.40
2022-11-07T15:42:15.926Z,1.40
2022-11-07T15:43:16.777Z,1.40
2022-11-07T15:44:17.628Z,1.40
2022-11-07T15:45:18.638Z,1.50
2022-11-07T15:46:19.404Z,1.40
2022-11-07T15:47:20.262Z,1.30
2022-11-07T15:48:21.109Z,1.30
2022-11-07T15:49:21.965Z,1.40
2022-11-07T15:50:22.825Z,1.30
2022-11-07T15:51:23.680Z,1.30
2022-11-07T15:52:25.520Z,1.50
2022-11-07T15:53:25.387Z,1.40
2022-11-07T15:54:26.242Z,1.80
2022-11-07T15:55:27.550Z,1.20
2022-11-07T15:56:27.915Z,1.30
2022-11-07T15:57:28.765Z,1.30
2022-11-07T15:58:29.630Z,1.60
2022-11-07T15:59:30.477Z,1.40
2022-11-07T16:00:31.568Z,1.10
2022-11-07T16:01:32.081Z,1.60
2022-11-07T16:02:32.542Z,1.30
2022-11-07T16:03:33.362Z,1.30
2022-11-07T16:04:39.294Z,1.50
2022-11-07T16:05:35.959Z,1.20
2022-11-07T16:06:35.850Z,1.50
2022-11-07T16:07:36.759Z,1.30
2022-11-07T16:08:37.615Z,1.10
2022-11-07T16:09:38.470Z,1.40
2022-11-07T16:10:39.550Z,1.30
2022-11-07T16:11:39.905Z,1.40
2022-11-07T16:12:40.759Z,1.20
2022-11-07T16:13:41.612Z,1.20
2022-11-07T16:14:44.445Z,1.20
2022-11-07T16:15:43.565Z,1.40
2022-11-07T16:16:43.918Z,1.10
2022-11-07T16:17:44.707Z,1.90
2022-11-07T16:18:45.569Z,1.30
2022-11-07T16:19:46.419Z,1.20
2022-11-07T16:20:47.549Z,1.40
2022-11-07T16:21:47.913Z,1.30
2022-11-07T16:22:48.753Z,1.20
2022-11-07T16:23:49.678Z,1.30
2022-11-07T16:24:50.547Z,1.30
2022-11-07T16:25:51.394Z,1.50
2022-11-07T16:26:52.247Z,1.60
2022-11-07T16:27:53.097Z,1.40
2022-11-07T16:28:53.962Z,1.40
2022-11-07T16:29:54.813Z,1.40
2022-11-07T16:30:56.137Z,1.50
2022-11-07T16:31:56.466Z,1.60
2022-11-07T16:32:57.288Z,1.30
2022-11-07T16:33:58.133Z,1.40
2022-11-07T16:34:58.987Z,1.40
2022-11-07T16:35:59.849Z,1.40
2022-11-07T16:37:00.702Z,1.40
2022-11-07T16:38:01.560Z,1.40
2022-11-07T16:39:02.461Z,1.30
2022-11-07T16:40:03.327Z,1.20
2022-11-07T16:41:04.548Z,1.70
2022-11-07T16:42:04.900Z,1.50
2022-11-07T16:43:05.750Z,1.40
2022-11-07T16:44:06.630Z,1.30
2022-11-07T16:45:07.454Z,1.40
2022-11-07T16:46:08.379Z,1.60
2022-11-07T16:47:09.200Z,1.60
2022-11-07T16:48:09.984Z,1.30
2022-11-07T16:49:10.883Z,1.30
2022-11-07T16:50:11.724Z,1.20
2022-11-07T16:51:12.585Z,1.10
2022-11-07T16:52:13.437Z,1.40
2022-11-07T16:53:14.293Z,1.20
2022-11-07T16:54:15.148Z,1.40
2022-11-07T16:55:16.004Z,1.40
2022-11-07T16:56:16.860Z,1.60
2022-11-07T16:57:17.724Z,1.50
2022-11-07T16:58:18.795Z,1.20
2022-11-07T16:59:19.152Z,1.40
2022-11-07T17:00:20.001Z,1.50
2022-11-07T17:01:20.970Z,1.50
2022-11-07T17:02:22.256Z,1.10
2022-11-07T17:03:22.638Z,1.30
2022-11-07T17:04:23.533Z,1.30
2022-11-07T17:05:24.351Z,1.30
2022-11-07T17:06:25.550Z,1.60
2022-11-07T17:07:25.920Z,1.40
2022-11-07T17:08:26.798Z,1.40
2022-11-07T17:09:27.631Z,1.40
2022-11-07T17:10:28.517Z,1.30
2022-11-07T17:11:29.377Z,1.70
2022-11-07T17:12:30.229Z,1.20
2022-11-07T17:13:31.081Z,1.40
2022-11-07T17:14:31.930Z,1.40
2022-11-07T17:15:32.782Z,1.40
2022-11-07T17:16:33.661Z,1.40
2022-11-07T17:17:34.518Z,1.40
2022-11-07T17:18:35.340Z,1.40
2022-11-07T17:19:36.192Z,1.40
2022-11-07T17:20:52.700Z,1.30
2022-11-07T17:21:38.799Z,1.40
2022-11-07T17:22:38.649Z,1.40
2022-11-07T17:23:39.502Z,1.70
2022-11-07T17:24:40.351Z,1.40
2022-11-07T17:25:41.216Z,1.50
2022-11-07T17:26:42.074Z,1.40
2022-11-07T17:27:42.930Z,1.40
2022-11-07T17:28:43.777Z,1.40
2022-11-07T17:29:44.631Z,1.30
2022-11-07T17:30:45.499Z,1.40
2022-11-07T17:31:46.567Z,1.70
2022-11-07T17:32:46.933Z,1.50
2022-11-07T17:33:47.698Z,1.40
2022-11-07T17:34:59.262Z,1.30
2022-11-07T17:35:50.300Z,1.50
2022-11-07T17:36:50.548Z,1.30
2022-11-07T17:37:50.902Z,1.40
2022-11-07T17:38:51.768Z,1.40
2022-11-07T17:39:52.619Z,1.50
2022-11-07T17:40:53.479Z,1.40
2022-11-07T17:41:54.331Z,1.60
2022-11-07T17:42:55.231Z,1.30
2022-11-07T17:43:56.096Z,1.60
2022-11-07T17:44:56.945Z,1.30
2022-11-07T17:45:57.811Z,1.30
2022-11-07T17:46:58.712Z,1.50
2022-11-07T17:47:59.581Z,1.40
2022-11-07T17:49:00.420Z,1.30
2022-11-07T17:50:01.246Z,1.30
2022-11-07T17:51:02.099Z,1.30
2022-11-07T17:52:02.960Z,1.40
2022-11-07T17:53:03.822Z,1.30
2022-11-07T17:54:04.678Z,1.30
2022-11-07T17:55:05.527Z,1.30
2022-11-07T17:56:06.393Z,1.30
2022-11-07T17:57:07.548Z,1.50
2022-11-07T17:58:07.908Z,1.30
2022-11-07T17:59:08.765Z,1.40
2022-11-07T18:00:09.639Z,1.40
2022-11-07T18:01:10.499Z,1.20
2022-11-07T18:02:11.775Z,1.50
2022-11-07T18:03:12.293Z,1.40
2022-11-07T18:04:12.633Z,1.50
2022-11-07T18:05:13.485Z,1.70
2022-11-07T18:06:14.333Z,1.60
2022-11-07T18:07:15.193Z,1.50
2022-11-07T18:08:25.177Z,1.30
2022-11-07T18:09:17.807Z,1.40
2022-11-07T18:10:17.658Z,1.40
2022-11-07T18:11:18.510Z,1.30
2022-11-07T18:12:20.046Z,1.50
2022-11-07T18:13:19.910Z,1.60
2022-11-07T18:14:20.768Z,1.40
2022-11-07T18:15:21.644Z,1.50
2022-11-07T18:16:22.495Z,1.40
2022-11-07T18:17:23.379Z,1.20
2022-11-07T18:18:24.227Z,1.20
2022-11-07T18:19:25.005Z,1.20
2022-11-07T18:20:25.860Z,1.20
2022-11-07T18:21:26.711Z,1.20
2022-11-07T18:22:27.640Z,1.30
2022-11-07T18:23:28.422Z,1.10
2022-11-07T18:24:29.276Z,1.40
2022-11-07T18:25:30.128Z,1.30
2022-11-07T18:26:31.178Z,1.40
2022-11-07T18:27:31.560Z,1.30
2022-11-07T18:28:32.410Z,1.30
2022-11-07T18:29:33.273Z,1.40
2022-11-07T18:30:34.124Z,1.60
2022-11-07T18:31:34.981Z,1.30
2022-11-07T18:32:36.710Z,1.40
2022-11-07T18:33:36.681Z,1.40
2022-11-07T18:34:37.446Z,1.20
2022-11-07T18:35:38.298Z,1.20
2022-11-07T18:36:39.150Z,1.20
2022-11-07T18:37:40.012Z,1.50
2022-11-07T18:38:40.863Z,1.50
2022-11-07T18:39:41.713Z,1.40
2022-11-07T18:40:42.570Z,1.40
2022-11-07T18:41:43.438Z,1.80
2022-11-07T18:42:44.304Z,1.30
2022-11-07T18:43:45.158Z,1.50
2022-11-07T18:44:46.009Z,1.40
2022-11-07T18:45:46.876Z,1.30
2022-11-07T18:46:47.727Z,1.60
2022-11-07T18:47:49.087Z,1.40
2022-11-07T18:48:49.696Z,1.40
2022-11-07T18:49:55.608Z,1.70
2022-11-07T18:50:51.754Z,1.50
2022-11-07T18:51:51.621Z,1.40
2022-11-07T18:52:52.469Z,1.50
2022-11-07T18:53:53.329Z,1.60
2022-11-07T18:54:54.184Z,1.80
2022-11-07T18:55:55.024Z,1.40
2022-11-07T18:56:55.876Z,1.50
2022-11-07T18:57:56.738Z,1.50
2022-11-07T18:58:57.588Z,1.60
2022-11-07T18:59:58.466Z,1.60
2022-11-07T19:00:59.429Z,1.40
2022-11-07T19:02:00.322Z,1.60
2022-11-07T19:03:01.171Z,1.50
2022-11-07T19:04:02.026Z,1.40
2022-11-07T19:05:02.796Z,1.50
2022-11-07T19:06:03.646Z,1.40
2022-11-07T19:07:04.499Z,1.40
2022-11-07T19:08:05.359Z,1.30
2022-11-07T19:09:06.209Z,1.60
2022-11-07T19:10:07.059Z,1.50
2022-11-07T19:11:07.911Z,1.40
2022-11-07T19:12:08.761Z,1.50
2022-11-07T19:13:09.627Z,1.50
2022-11-07T19:14:10.479Z,1.50
2022-11-07T19:15:11.330Z,1.70
2022-11-07T19:16:12.194Z,1.40
2022-11-07T19:17:13.046Z,1.50
2022-11-07T19:18:14.466Z,1.30
2022-11-07T19:19:14.470Z,1.30
2022-11-07T19:20:15.253Z,1.50
2022-11-07T19:21:18.935Z,1.30
2022-11-07T19:22:16.699Z,1.40
2022-11-07T19:23:17.891Z,1.30
2022-11-07T19:24:18.380Z,1.40
2022-11-07T19:25:19.230Z,1.50
2022-11-07T19:26:20.081Z,1.30
2022-11-07T19:27:20.930Z,1.40
2022-11-07T19:28:21.791Z,1.40
2022-11-07T19:29:22.772Z,1.40
2022-11-07T19:30:23.589Z,1.40
2022-11-07T19:31:24.447Z,1.50
2022-11-07T19:32:25.297Z,1.50
2022-11-07T19:33:26.565Z,1.30
2022-11-07T19:34:26.916Z,1.20
2022-11-07T19:35:27.687Z,1.30
2022-11-07T19:36:28.540Z,1.40
2022-11-07T19:37:29.392Z,1.30
2022-11-07T19:38:30.549Z,1.60
2022-11-07T19:39:30.900Z,1.40
2022-11-07T19:40:31.752Z,1.30
2022-11-07T19:41:32.618Z,1.30
2022-11-07T19:42:33.460Z,1.40
2022-11-07T19:43:34.546Z,1.60
2022-11-07T19:44:34.923Z,1.30
2022-11-07T19:45:35.785Z,1.40
2022-11-07T19:46:36.636Z,1.30
2022-11-07T19:47:37.487Z,1.40
2022-11-07T19:48:38.390Z,1.50
2022-11-07T19:49:39.240Z,1.60
2022-11-07T19:50:40.021Z,1.50
2022-11-07T19:51:40.883Z,1.40
2022-11-07T19:52:41.735Z,1.40
2022-11-07T19:53:43.046Z,1.90
2022-11-07T19:54:43.397Z,1.50
2022-11-07T19:55:44.248Z,1.30
2022-11-07T19:56:45.098Z,1.50
2022-11-07T19:57:45.957Z,1.50
2022-11-07T19:58:46.819Z,1.50
2022-11-07T19:59:47.683Z,1.40
2022-11-07T20:00:48.556Z,1.50
2022-11-07T20:02:10.516Z,1.50
2022-11-07T20:02:51.194Z,1.50
2022-11-07T20:03:50.821Z,1.70
2022-11-07T20:04:51.651Z,1.50
2022-11-07T20:05:52.424Z,1.30
2022-11-07T20:06:53.278Z,1.60
2022-11-07T20:07:57.065Z,1.40
2022-11-07T20:08:55.885Z,1.30
2022-11-07T20:09:55.735Z,1.50
2022-11-07T20:10:56.588Z,1.70
2022-11-07T20:11:57.440Z,1.60
2022-11-07T20:12:58.293Z,1.60
2022-11-07T20:14:03.399Z,1.50
2022-11-07T20:14:59.857Z,1.60
2022-11-07T20:16:00.706Z,1.70
2022-11-07T20:17:01.565Z,2.20
2022-11-07T20:18:02.408Z,1.60
2022-11-07T20:19:03.337Z,1.50
2022-11-07T20:20:07.304Z,1.60
2022-11-07T20:21:05.876Z,1.60
2022-11-07T20:22:05.728Z,1.50
2022-11-07T20:23:06.578Z,1.70
2022-11-07T20:24:07.440Z,1.60
2022-11-07T20:25:08.292Z,1.40
2022-11-07T20:26:09.142Z,1.70
2022-11-07T20:27:09.995Z,1.70
2022-11-07T20:28:10.845Z,1.40
2022-11-07T20:29:11.712Z,1.80
2022-11-07T20:30:12.558Z,1.60
2022-11-07T20:31:13.411Z,1.80
2022-11-07T20:32:14.260Z,1.80
2022-11-07T20:33:15.374Z,1.50
2022-11-07T20:34:15.910Z,1.60
2022-11-07T20:35:16.770Z,1.60
2022-11-07T20:36:17.550Z,1.70
2022-11-07T20:37:18.438Z,2.20
2022-11-07T20:38:19.286Z,1.80
2022-11-07T20:39:20.146Z,1.80
2022-11-07T20:40:23.938Z,1.50
2022-11-07T20:41:22.757Z,1.80
2022-11-07T20:42:22.603Z,1.60
2022-11-07T20:43:23.455Z,1.60
2022-11-07T20:44:24.321Z,1.60
2022-11-07T20:45:25.172Z,1.80
2022-11-07T20:46:26.026Z,1.80
2022-11-07T20:47:26.876Z,1.90
2022-11-07T20:48:27.727Z,1.60
2022-11-07T20:49:28.629Z,1.90
2022-11-07T20:50:29.480Z,1.60
2022-11-07T20:51:30.249Z,1.80
2022-11-07T20:52:31.097Z,1.80
2022-11-07T20:53:31.949Z,1.70
2022-11-07T20:54:32.809Z,1.80
2022-11-07T20:55:33.663Z,1.50
2022-11-07T20:56:34.514Z,1.70
2022-11-07T20:57:35.363Z,1.60
2022-11-07T20:58:36.215Z,1.90
2022-11-07T20:59:37.075Z,1.60
2022-11-07T21:00:38.015Z,1.80
2022-11-07T21:01:39.037Z,1.50
2022-11-07T21:02:39.412Z,1.60
2022-11-07T21:03:40.265Z,1.80
2022-11-07T21:05:03.297Z,1.50
2022-11-07T21:05:42.889Z,1.90
2022-11-07T21:06:42.673Z,1.60
2022-11-07T21:07:43.524Z,1.80
2022-11-07T21:08:44.570Z,1.60
2022-11-07T21:09:44.889Z,1.60
2022-11-07T21:10:45.739Z,1.60
2022-11-07T21:11:46.591Z,1.70
2022-11-07T21:12:47.443Z,1.70
2022-11-07T21:13:52.993Z,1.70
2022-11-07T21:14:48.918Z,1.80
2022-11-07T21:15:49.766Z,1.80
2022-11-07T21:16:50.618Z,1.60
2022-11-07T21:17:51.477Z,1.70
2022-11-07T21:18:52.334Z,1.70
2022-11-07T21:19:53.216Z,1.70
2022-11-07T21:20:54.063Z,1.70
2022-11-07T21:21:54.838Z,1.70
2022-11-07T21:22:55.741Z,1.70
2022-11-07T21:23:56.592Z,1.70
2022-11-07T21:24:57.458Z,1.60
2022-11-07T21:25:58.304Z,2.00
2022-11-07T21:26:59.158Z,1.40
2022-11-07T21:28:00.009Z,1.80
2022-11-07T21:29:00.866Z,1.70
2022-11-07T21:30:01.722Z,1.50
2022-11-07T21:31:02.570Z,1.50
2022-11-07T21:32:03.422Z,1.60
2022-11-07T21:33:04.273Z,1.60
2022-11-07T21:34:05.124Z,1.80
2022-11-07T21:35:06.004Z,1.80
2022-11-07T21:36:06.854Z,1.80
2022-11-07T21:37:07.651Z,1.60
2022-11-07T21:38:08.517Z,1.60
2022-11-07T21:39:09.373Z,1.80
2022-11-07T21:40:10.231Z,1.60
2022-11-07T21:41:11.085Z,1.90
2022-11-07T21:42:11.937Z,1.70
2022-11-07T21:43:12.792Z,1.60
2022-11-07T21:44:13.643Z,1.70
2022-11-07T21:45:14.505Z,1.70
2022-11-07T21:46:15.352Z,1.60
2022-11-07T21:47:16.202Z,1.60
2022-11-07T21:48:17.053Z,1.70
2022-11-07T21:49:17.904Z,1.80
2022-11-07T21:50:42.989Z,1.70
2022-11-07T21:51:20.561Z,1.60
2022-11-07T21:52:20.373Z,1.50
2022-11-07T21:53:21.226Z,2.00
2022-11-07T21:54:22.076Z,1.70
2022-11-07T21:55:22.938Z,1.60
2022-11-07T21:56:23.789Z,1.80
2022-11-07T21:57:24.657Z,1.70
2022-11-07T21:58:25.514Z,1.80
2022-11-07T21:59:26.365Z,1.70
2022-11-07T22:00:31.628Z,1.70
2022-11-07T22:01:29.030Z,1.80
2022-11-07T22:02:28.473Z,2.00
2022-11-07T22:03:58.617Z,2.00
2022-11-07T22:04:31.055Z,1.50
2022-11-07T22:05:31.069Z,2.00
2022-11-07T22:06:31.420Z,1.80
2022-11-07T22:07:32.209Z,1.80
2022-11-07T22:08:33.060Z,1.70
2022-11-07T22:09:33.910Z,1.80
2022-11-07T22:10:35.043Z,1.80
2022-11-07T22:11:35.393Z,1.60
2022-11-07T22:12:36.248Z,2.00
2022-11-07T22:13:37.100Z,1.70
2022-11-07T22:14:37.988Z,1.70
2022-11-07T22:15:38.850Z,1.70
2022-11-07T22:16:39.757Z,1.60
2022-11-07T22:17:40.596Z,1.80
2022-11-07T22:18:41.445Z,1.80
2022-11-07T22:19:42.296Z,1.80
2022-11-07T22:20:43.184Z,1.90
2022-11-07T22:21:44.035Z,1.90
2022-11-07T22:22:44.819Z,1.70
2022-11-07T22:23:45.683Z,1.80
2022-11-07T22:24:46.535Z,2.00
2022-11-07T22:25:47.395Z,1.90
2022-11-07T22:26:48.247Z,1.60
2022-11-07T22:27:49.100Z,1.80
2022-11-07T22:28:49.949Z,1.90
2022-11-07T22:29:50.802Z,1.80
2022-11-07T22:30:52.045Z,2.00
2022-11-07T22:31:52.401Z,1.90
2022-11-07T22:32:53.253Z,1.90
2022-11-07T22:33:54.117Z,1.90
2022-11-07T22:34:54.956Z,2.10
2022-11-07T22:35:55.835Z,1.70
2022-11-07T22:36:56.699Z,1.80
2022-11-07T22:37:57.463Z,2.00
2022-11-07T22:38:58.319Z,1.80
2022-11-07T22:39:59.168Z,1.90
2022-11-07T22:41:00.025Z,2.10
2022-11-07T22:42:00.878Z,1.90
2022-11-07T22:43:01.732Z,1.80
2022-11-07T22:44:02.579Z,1.90
2022-11-07T22:45:03.430Z,1.80
2022-11-07T22:46:04.293Z,1.90
2022-11-07T22:47:05.146Z,2.00
2022-11-07T22:48:05.997Z,1.90
2022-11-07T22:49:06.848Z,1.90
2022-11-07T22:50:07.697Z,1.90
2022-11-07T22:51:08.599Z,2.10
2022-11-07T22:52:09.453Z,1.80
2022-11-07T22:53:10.297Z,1.90
2022-11-07T22:54:11.146Z,2.00
2022-11-07T22:55:12.015Z,2.00
2022-11-07T22:56:12.862Z,2.00
2022-11-07T22:57:17.705Z,1.80
2022-11-07T22:58:14.578Z,2.00
2022-11-07T22:59:15.005Z,1.90
2022-11-07T23:00:21.420Z,2.00
2022-11-07T23:01:17.615Z,2.00
2022-11-07T23:02:17.587Z,2.20
2022-11-07T23:03:18.530Z,2.00
2022-11-07T23:04:19.340Z,1.90
2022-11-07T23:05:19.977Z,2.00
2022-11-07T23:06:20.854Z,1.90
2022-11-07T23:07:21.709Z,1.80
2022-11-07T23:08:22.515Z,1.90
2022-11-07T23:09:23.366Z,2.20